地図

経路データ

SID SEASON NUMBER BASIN SUBBASIN NAME ISO_TIME NATURE LAT LON WMO_WIND WMO_PRES WMO_AGENCY TRACK_TYPE DIST2LAND LANDFALL IFLAG USA_AGENCY USA_ATCF_ID USA_LAT USA_LON USA_RECORD USA_STATUS USA_WIND USA_PRES USA_SSHS USA_R34_NE USA_R34_SE USA_R34_SW USA_R34_NW USA_R50_NE USA_R50_SE USA_R50_SW USA_R50_NW USA_R64_NE USA_R64_SE USA_R64_SW USA_R64_NW USA_POCI USA_ROCI USA_RMW USA_EYE TOKYO_LAT TOKYO_LON TOKYO_GRADE TOKYO_WIND TOKYO_PRES TOKYO_R50_DIR TOKYO_R50_LONG TOKYO_R50_SHORT TOKYO_R30_DIR TOKYO_R30_LONG TOKYO_R30_SHORT TOKYO_LAND CMA_LAT CMA_LON CMA_CAT CMA_WIND CMA_PRES HKO_LAT HKO_LON HKO_CAT HKO_WIND HKO_PRES NEWDELHI_LAT NEWDELHI_LON NEWDELHI_GRADE NEWDELHI_WIND NEWDELHI_PRES NEWDELHI_CI NEWDELHI_DP NEWDELHI_POCI REUNION_LAT REUNION_LON REUNION_TYPE REUNION_WIND REUNION_PRES REUNION_TNUM REUNION_CI REUNION_RMW REUNION_R34_NE REUNION_R34_SE REUNION_R34_SW REUNION_R34_NW REUNION_R50_NE REUNION_R50_SE REUNION_R50_SW REUNION_R50_NW REUNION_R64_NE REUNION_R64_SE REUNION_R64_SW REUNION_R64_NW BOM_LAT BOM_LON BOM_TYPE BOM_WIND BOM_PRES BOM_TNUM BOM_CI BOM_RMW BOM_R34_NE BOM_R34_SE BOM_R34_SW BOM_R34_NW BOM_R50_NE BOM_R50_SE BOM_R50_SW BOM_R50_NW BOM_R64_NE BOM_R64_SE BOM_R64_SW BOM_R64_NW BOM_ROCI BOM_POCI BOM_EYE BOM_POS_METHOD BOM_PRES_METHOD NADI_LAT NADI_LON NADI_CAT NADI_WIND NADI_PRES WELLINGTON_LAT WELLINGTON_LON WELLINGTON_WIND WELLINGTON_PRES DS824_LAT DS824_LON DS824_STAGE DS824_WIND DS824_PRES TD9636_LAT TD9636_LON TD9636_STAGE TD9636_WIND TD9636_PRES TD9635_LAT TD9635_LON TD9635_WIND TD9635_PRES TD9635_ROCI NEUMANN_LAT NEUMANN_LON NEUMANN_CLASS NEUMANN_WIND NEUMANN_PRES MLC_LAT MLC_LON MLC_CLASS MLC_WIND MLC_PRES USA_GUST BOM_GUST BOM_GUST_PER REUNION_GUST REUNION_GUST_PER USA_SEAHGT USA_SEARAD_NE USA_SEARAD_SE USA_SEARAD_SW USA_SEARAD_NW STORM_SPEED STORM_DIR
1919251N09147 1919 35 WP MM NOT_NAMED 1919-09-07 22:00:00 NR 8.90000 146.900 main 1232 1232 __________O___ -1 8.90000 146.900 2 11 308
1919251N09147 1919 35 WP MM NOT_NAMED 1919-09-08 00:00:00 NR 9.12354 146.613 main 1255 1255 __________P___ -1 9.12354 146.613 2 11 308
1919251N09147 1919 35 WP MM NOT_NAMED 1919-09-08 03:00:00 NR 9.45607 146.191 main 1300 1300 __________P___ -1 9.45607 146.191 2 11 309
1919251N09147 1919 35 WP MM NOT_NAMED 1919-09-08 06:00:00 NR 9.78198 145.787 main 1336 1336 __________P___ -1 9.78198 145.787 2 10 310
1919251N09147 1919 35 WP MM NOT_NAMED 1919-09-08 09:00:00 NR 10.0977 145.415 main 1373 1373 __________P___ -1 10.0977 145.415 2 10 311
1919251N09147 1919 35 WP MM NOT_NAMED 1919-09-08 10:00:00 NR 10.2000 145.300 main 1385 1385 __________O___ -1 10.2000 145.300 2 9 313
1919251N09147 1919 35 WP MM NOT_NAMED 1919-09-08 12:00:00 NR 10.3998 145.085 main 1410 1410 __________P___ -1 10.3998 145.085 2 8 314
1919251N09147 1919 35 WP MM NOT_NAMED 1919-09-08 15:00:00 NR 10.6871 144.788 main 1448 1448 __________P___ -1 10.6871 144.788 2 8 314
1919251N09147 1919 35 WP MM NOT_NAMED 1919-09-08 18:00:00 NR 10.9596 144.502 main 1486 1486 __________P___ -1 10.9596 144.502 2 8 313
1919251N09147 1919 35 WP MM NOT_NAMED 1919-09-08 21:00:00 NR 11.2174 144.205 main 1513 1513 __________P___ -1 11.2174 144.205 2 8 311
1919251N09147 1919 35 WP MM NOT_NAMED 1919-09-08 22:00:00 NR 11.3000 144.100 main 1526 1526 __________O___ -1 11.3000 144.100 2 8 307
1919251N09147 1919 35 WP MM NOT_NAMED 1919-09-09 00:00:00 NR 11.4693 143.865 main 1552 1554 __________P___ -1 11.4693 143.865 2 9 305
1919251N09147 1919 35 WP MM NOT_NAMED 1919-09-09 03:00:00 NR 11.7108 143.492 main 1583 1583 __________P___ -1 11.7108 143.492 2 9 302
1919251N09147 1919 35 WP MM NOT_NAMED 1919-09-09 06:00:00 NR 11.9346 143.108 main 1606 1606 __________P___ -1 11.9346 143.108 2 9 300
1919251N09147 1919 35 WP MM NOT_NAMED 1919-09-09 09:00:00 NR 12.1375 142.725 main 1613 1613 __________P___ -1 12.1375 142.725 2 8 298
1919251N09147 1919 35 WP MM NOT_NAMED 1919-09-09 10:00:00 NR 12.2000 142.600 main 1620 1617 __________O___ -1 12.2000 142.600 2 8 297
1919251N09147 1919 35 WP MM NOT_NAMED 1919-09-09 12:00:00 NR 12.3169 142.366 main 1625 1621 __________P___ -1 12.3169 142.366 2 8 296
1919251N09147 1919 35 WP MM NOT_NAMED 1919-09-09 15:00:00 NR 12.4735 142.022 main 1634 1626 __________P___ -1 12.4735 142.022 2 7 294
1919251N09147 1919 35 WP MM NOT_NAMED 1919-09-09 18:00:00 NR 12.6160 141.677 main 1632 1625 __________P___ -1 12.6160 141.677 2 7 292
1919251N09147 1919 35 WP MM NOT_NAMED 1919-09-09 21:00:00 NR 12.7536 141.322 main 1636 1632 __________P___ -1 12.7536 141.322 2 8 292
1919251N09147 1919 35 WP MM NOT_NAMED 1919-09-09 22:00:00 NR 12.8000 141.200 main 1632 1628 __________O___ -1 12.8000 141.200 2 8 292
1919251N09147 1919 35 WP MM NOT_NAMED 1919-09-10 00:00:00 NR 12.9026 140.945 main 1631 1616 __________P___ -1 12.9026 140.945 2 8 292
1919251N09147 1919 35 WP MM NOT_NAMED 1919-09-10 03:00:00 NR 13.0565 140.549 main 1616 1574 __________P___ -1 13.0565 140.549 2 8 291
1919251N09147 1919 35 WP MM NOT_NAMED 1919-09-10 06:00:00 NR 13.2078 140.144 main 1574 1535 __________P___ -1 13.2078 140.144 2 8 291
1919251N09147 1919 35 WP MM NOT_NAMED 1919-09-10 09:00:00 NR 13.3533 139.736 main 1535 1524 __________P___ -1 13.3533 139.736 2 8 290
1919251N09147 1919 35 WP MM NOT_NAMED 1919-09-10 10:00:00 NR 13.4000 139.600 main 1524 1504 __________O___ -1 13.4000 139.600 2 8 291
1919251N09147 1919 35 WP MM NOT_NAMED 1919-09-10 12:00:00 NR 13.4911 139.362 main 1504 1463 __________P___ -1 13.4911 139.362 2 7 291
1919251N09147 1919 35 WP MM NOT_NAMED 1919-09-10 15:00:00 NR 13.6218 139.006 main 1463 1423 __________P___ -1 13.6218 139.006 2 8 289
1919251N09147 1919 35 WP MM NOT_NAMED 1919-09-10 18:00:00 NR 13.7455 138.620 main 1423 1383 __________P___ -1 13.7455 138.620 2 8 287
1919251N09147 1919 35 WP MM NOT_NAMED 1919-09-10 21:00:00 NR 13.8625 138.170 main 1385 1364 __________P___ -1 13.8625 138.170 2 9 284
1919251N09147 1919 35 WP MM NOT_NAMED 1919-09-10 22:00:00 NR 13.9000 138.000 main 1364 1324 __________O___ -1 13.9000 138.000 2 11 282
1919251N09147 1919 35 WP MM NOT_NAMED 1919-09-11 00:00:00 NR 13.9803 137.621 main 1324 1263 __________P___ -1 13.9803 137.621 2 12 281
1919251N09147 1919 35 WP MM NOT_NAMED 1919-09-11 03:00:00 NR 14.0946 136.983 main 1263 1190 __________P___ -1 14.0946 136.983 2 13 279
1919251N09147 1919 35 WP MM NOT_NAMED 1919-09-11 06:00:00 NR 14.1957 136.284 main 1190 1108 __________P___ -1 14.1957 136.284 2 14 278
1919251N09147 1919 35 WP MM NOT_NAMED 1919-09-11 09:00:00 NR 14.2779 135.549 main 1108 1086 __________P___ -1 14.2779 135.549 2 14 276
1919251N09147 1919 35 WP MM NOT_NAMED 1919-09-11 10:00:00 NR 14.3000 135.300 main 1086 1034 __________O___ -1 14.3000 135.300 2 15 275
1919251N09147 1919 35 WP MM NOT_NAMED 1919-09-11 12:00:00 NR 14.3394 134.786 main 1034 952 __________P___ -1 14.3394 134.786 2 15 274
1919251N09147 1919 35 WP MM NOT_NAMED 1919-09-11 15:00:00 NR 14.3797 133.994 main 952 869 __________P___ -1 14.3797 133.994 2 15 272
1919251N09147 1919 35 WP MM NOT_NAMED 1919-09-11 18:00:00 NR 14.3996 133.221 main 869 796 __________P___ -1 14.3996 133.221 2 14 271
1919251N09147 1919 35 WP MM NOT_NAMED 1919-09-11 21:00:00 NR 14.4023 132.513 main 796 776 __________P___ -1 14.4023 132.513 2 13 270
1919251N09147 1919 35 WP MM NOT_NAMED 1919-09-11 22:00:00 NR 14.4000 132.300 main 776 735 __________O___ -1 14.4000 132.300 2 11 268
1919251N09147 1919 35 WP MM NOT_NAMED 1919-09-12 00:00:00 NR 14.3858 131.937 main 735 694 __________P___ -1 14.3858 131.937 2 10 267
1919251N09147 1919 35 WP MM NOT_NAMED 1919-09-12 03:00:00 NR 14.3526 131.467 main 694 650 __________P___ -1 14.3526 131.467 2 9 266
1919251N09147 1919 35 WP MM NOT_NAMED 1919-09-12 06:00:00 NR 14.3190 131.050 main 650 600 __________P___ -1 14.3190 131.050 2 8 266
1919251N09147 1919 35 WP MM NOT_NAMED 1919-09-12 09:00:00 NR 14.3003 130.642 main 600 590 __________P___ -1 14.3003 130.642 2 8 268
1919251N09147 1919 35 WP MM NOT_NAMED 1919-09-12 10:00:00 NR 14.3000 130.500 main 590 560 __________O___ -1 14.3000 130.500 2 9 270
1919251N09147 1919 35 WP MM NOT_NAMED 1919-09-12 12:00:00 NR 14.3003 130.178 main 560 512 __________P___ -1 14.3003 130.178 2 10 271
1919251N09147 1919 35 WP MM NOT_NAMED 1919-09-12 15:00:00 NR 14.3195 129.682 main 512 470 __________P___ -1 14.3195 129.682 2 10 274
1919251N09147 1919 35 WP MM NOT_NAMED 1919-09-12 18:00:00 NR 14.3694 129.177 main 470 425 __________P___ -1 14.3694 129.177 2 10 278
1919251N09147 1919 35 WP MM NOT_NAMED 1919-09-12 21:00:00 NR 14.4594 128.669 main 431 414 __________P___ -1 14.4594 128.669 2 10 281
1919251N09147 1919 35 WP MM NOT_NAMED 1919-09-12 22:00:00 NR 14.5000 128.500 main 414 396 __________O___ -1 14.5000 128.500 2 10 286
1919251N09147 1919 35 WP MM NOT_NAMED 1919-09-13 00:00:00 NR 14.5962 128.167 main 396 369 __________P___ -1 14.5962 128.167 2 10 289
1919251N09147 1919 35 WP MM NOT_NAMED 1919-09-13 03:00:00 NR 14.7785 127.667 main 369 325 __________P___ -1 14.7785 127.667 2 10 292
1919251N09147 1919 35 WP MM NOT_NAMED 1919-09-13 06:00:00 NR 14.9925 127.167 main 325 287 __________P___ -1 14.9925 127.167 2 11 295
1919251N09147 1919 35 WP MM NOT_NAMED 1919-09-13 09:00:00 NR 15.2225 126.667 main 287 275 __________P___ -1 15.2225 126.667 2 11 296
1919251N09147 1919 35 WP MM NOT_NAMED 1919-09-13 10:00:00 NR 15.3000 126.500 main 275 256 __________O___ -1 15.3000 126.500 2 10 296
1919251N09147 1919 35 WP MM NOT_NAMED 1919-09-13 12:00:00 NR 15.4490 126.182 main 256 241 __________P___ -1 15.4490 126.182 2 10 296
1919251N09147 1919 35 WP MM NOT_NAMED 1919-09-13 15:00:00 NR 15.6792 125.706 main 242 233 __________P___ -1 15.6792 125.706 2 10 296
1919251N09147 1919 35 WP MM NOT_NAMED 1919-09-13 18:00:00 NR 15.9093 125.214 main 233 229 __________P___ -1 15.9093 125.214 2 11 295
1919251N09147 1919 35 WP MM NOT_NAMED 1919-09-13 21:00:00 NR 16.1301 124.687 main 238 227 __________P___ -1 16.1301 124.687 2 11 293
1919251N09147 1919 35 WP MM NOT_NAMED 1919-09-13 22:00:00 NR 16.2000 124.500 main 227 183 __________O___ -1 16.2000 124.500 2 12 291
1919251N09147 1919 35 WP MM NOT_NAMED 1919-09-14 00:00:00 NR 16.3436 124.111 main 183 115 __________P___ -1 16.3436 124.111 2 12 290
1919251N09147 1919 35 WP MM NOT_NAMED 1919-09-14 03:00:00 NR 16.5467 123.491 main 115 39 __________P___ -1 16.5467 123.491 2 13 287
1919251N09147 1919 35 WP MM NOT_NAMED 1919-09-14 06:00:00 NR 16.7243 122.831 main 39 0 __________P___ -1 16.7243 122.831 2 13 284
1919251N09147 1919 35 WP MM NOT_NAMED 1919-09-14 09:00:00 NR 16.8640 122.138 main 0 0 __________P___ -1 16.8640 122.138 2 14 281
1919251N09147 1919 35 WP MM NOT_NAMED 1919-09-14 10:00:00 NR 16.9000 121.900 main 0 0 __________O___ -1 16.9000 121.900 2 14 278
1919251N09147 1919 35 WP MM NOT_NAMED 1919-09-14 12:00:00 NR 16.9548 121.417 main 0 0 __________P___ -1 16.9548 121.417 2 14 275
1919251N09147 1919 35 WP MM NOT_NAMED 1919-09-14 15:00:00 NR 17.0001 120.675 main 0 0 __________P___ -1 17.0001 120.675 2 14 272
1919251N09147 1919 35 WP MM NOT_NAMED 1919-09-14 18:00:00 NR 17.0125 119.919 main 57 57 __________P___ -1 17.0125 119.919 2 15 270
1919251N09147 1919 35 WP MM NOT_NAMED 1919-09-14 21:00:00 NR 17.0048 119.155 main 101 108 __________P___ -1 17.0048 119.155 2 15 269
1919251N09147 1919 35 WP MM NOT_NAMED 1919-09-14 22:00:00 NR 17.0000 118.900 main 123 __________O___ -1 17.0000 118.900 2 15 269

デジタル台風データ・検索

IBTrACS Databaseについて

本データベースは、米国NOAAが公開する1842年以降の世界の熱帯低気圧のベストトラックデータアーカイブInternational Best Track Archive for Climate Stewardship (IBTrACS)を、ウェブで閲覧しやすい形式に変換したものです。

最終更新日:2021-12-06